Time;durP1;ratioP1;P1;durP2;ratioP2;P2;SDS_P1;SDS_P2;PMS_P1;PMS_P2;Temp;Humidity;BMP_temperature;BMP_pressure;BME280_temperature;BME280_humidity;BME280_pressure;Samples;Min_cycle;Max_cycle;Signal;HPM_P1;HPM_P2
2023/07/24 00:01:07;;;;;;;4.45;1.83;;;;;;;19.02;100.00;100260.94;6229247;28;20231;-68
2023/07/24 00:04:28;;;;;;;3.17;2.42;;;;;;;18.92;100.00;100265.13;6226934;28;20512;-68
2023/07/24 00:07:49;;;;;;;2.45;2.25;;;;;;;18.87;100.00;100257.56;6233531;28;20244;-68
2023/07/24 00:11:12;;;;;;;2.58;2.38;;;;;;;18.92;100.00;100256.94;6215404;28;20232;-68
2023/07/24 00:14:34;;;;;;;4.53;1.88;;;;;;;18.95;100.00;100254.63;6226321;28;20330;-68
2023/07/24 00:17:55;;;;;;;1.40;1.30;;;;;;;18.92;100.00;100257.75;6223910;28;20236;-68
2023/07/24 00:21:16;;;;;;;2.30;2.10;;;;;;;18.85;100.00;100254.19;6246504;28;20234;-68
2023/07/24 00:24:37;;;;;;;12.68;2.80;;;;;;;18.87;100.00;100246.63;6226461;28;20809;-68
2023/07/24 00:28:00;;;;;;;4.13;2.67;;;;;;;18.87;100.00;100243.03;6222834;28;20719;-67
2023/07/24 00:31:21;;;;;;;4.30;2.13;;;;;;;18.89;100.00;100244.53;6246141;28;20258;-67
2023/07/24 00:34:42;;;;;;;3.33;3.00;;;;;;;18.88;100.00;100239.25;6214719;28;20534;-67
2023/07/24 00:38:03;;;;;;;2.47;2.28;;;;;;;18.81;100.00;100247.44;6243140;28;20231;-67
2023/07/24 00:41:25;;;;;;;2.45;2.25;;;;;;;18.78;100.00;100242.38;6246958;28;20235;-67
2023/07/24 00:44:47;;;;;;;2.42;2.17;;;;;;;18.79;100.00;100235.88;6223792;28;22290;-67
2023/07/24 00:48:09;;;;;;;2.88;2.05;;;;;;;18.74;100.00;100241.09;6229674;28;20236;-67
2023/07/24 00:51:34;;;;;;;2.38;2.15;;;;;;;18.78;100.00;100236.91;6249188;28;20767;-68
2023/07/24 00:54:55;;;;;;;2.28;2.08;;;;;;;18.76;100.00;100241.75;6205911;28;20244;-68
2023/07/24 00:58:17;;;;;;;3.22;2.88;;;;;;;18.77;100.00;100237.13;6240821;28;20243;-68
2023/07/24 01:01:40;;;;;;;7.72;2.42;;;;;;;18.81;100.00;100247.44;6250021;28;20231;-68
2023/07/24 01:05:02;;;;;;;4.40;2.00;;;;;;;18.79;100.00;100232.31;6227375;28;20558;-68
2023/07/24 01:08:23;;;;;;;3.33;2.40;;;;;;;18.80;100.00;100232.09;6241323;28;20614;-68
2023/07/24 01:11:48;;;;;;;2.00;1.90;;;;;;;18.81;100.00;100235.66;6249362;28;20854;-68
2023/07/24 01:15:14;;;;;;;2.83;2.63;;;;;;;18.78;100.00;100239.66;6226228;28;20718;-68
2023/07/24 01:18:39;;;;;;;2.30;2.10;;;;;;;18.76;100.00;100236.28;6224765;28;20270;-68
2023/07/24 01:22:09;;;;;;;2.33;2.13;;;;;;;18.80;100.00;100239.44;6251884;28;20599;-67
2023/07/24 01:25:36;;;;;;;2.42;2.22;;;;;;;18.84;100.00;100233.38;6225937;28;20570;-66
2023/07/24 01:28:59;;;;;;;2.63;2.38;;;;;;;18.76;100.00;100233.53;6236240;28;20239;-68
2023/07/24 01:32:21;;;;;;;3.22;2.20;;;;;;;18.73;100.00;100238.59;6248796;28;20240;-67
2023/07/24 01:35:44;;;;;;;1.98;1.88;;;;;;;18.72;100.00;100232.28;6211487;28;20220;-68
2023/07/24 01:39:07;;;;;;;3.65;2.42;;;;;;;18.74;100.00;100229.34;6233881;28;20590;-68
2023/07/24 01:42:29;;;;;;;2.55;2.35;;;;;;;18.75;100.00;100222.84;6223042;28;20232;-67
2023/07/24 01:45:51;;;;;;;2.60;2.40;;;;;;;18.73;100.00;100220.28;6241644;28;20235;-67
2023/07/24 01:49:13;;;;;;;2.17;1.98;;;;;;;18.79;100.00;100219.50;6252272;28;20232;-68
2023/07/24 01:52:38;;;;;;;2.63;2.42;;;;;;;18.81;100.00;100213.81;6256995;28;20241;-68
2023/07/24 01:55:59;;;;;;;10.93;3.15;;;;;;;18.83;100.00;100218.03;6240766;28;20230;-68
2023/07/24 01:59:20;;;;;;;3.17;2.85;;;;;;;18.82;100.00;100216.34;6219093;28;20329;-68
2023/07/24 02:02:43;;;;;;;2.55;2.38;;;;;;;18.90;100.00;100209.88;6244304;28;20236;-68
2023/07/24 02:06:04;;;;;;;2.13;1.98;;;;;;;18.85;100.00;100220.56;6241640;28;20743;-69
2023/07/24 02:09:26;;;;;;;3.00;2.30;;;;;;;18.91;100.00;100217.84;6236881;28;20255;-68
2023/07/24 02:12:47;;;;;;;2.75;2.55;;;;;;;18.87;100.00;100207.53;6237925;28;20510;-68
2023/07/24 02:16:08;;;;;;;1.95;1.85;;;;;;;18.88;100.00;100203.72;6244135;28;20567;-68
2023/07/24 02:19:31;;;;;;;3.13;2.92;;;;;;;18.82;100.00;100202.69;6246433;28;20228;-68
2023/07/24 02:22:52;;;;;;;3.55;3.25;;;;;;;18.77;100.00;100193.44;6260392;28;20233;-68
2023/07/24 02:26:14;;;;;;;3.17;2.95;;;;;;;18.79;100.00;100207.72;6250227;28;20238;-68
2023/07/24 02:29:35;;;;;;;2.47;2.28;;;;;;;18.79;100.00;100202.25;6242641;28;20711;-68
2023/07/24 02:32:57;;;;;;;1.92;1.83;;;;;;;18.89;100.00;100200.81;6237172;28;20242;-68
2023/07/24 02:36:19;;;;;;;3.72;3.03;;;;;;;18.85;100.00;100202.28;6246840;28;20251;-68
2023/07/24 02:39:41;;;;;;;2.65;2.40;;;;;;;18.85;100.00;100207.75;6236163;28;20236;-68
2023/07/24 02:43:02;;;;;;;4.05;3.45;;;;;;;18.83;100.00;100207.13;6235916;28;20247;-68
2023/07/24 02:46:24;;;;;;;3.40;2.83;;;;;;;18.80;100.00;100206.66;6209542;28;20232;-68
2023/07/24 02:49:46;;;;;;;4.18;3.28;;;;;;;18.80;100.00;100214.84;6230840;28;20322;-68
2023/07/24 02:53:09;;;;;;;3.72;3.42;;;;;;;18.76;100.00;100217.16;6226428;28;20302;-68
2023/07/24 02:56:30;;;;;;;3.60;3.30;;;;;;;18.82;100.00;100204.56;6247157;28;20243;-68
2023/07/24 02:59:51;;;;;;;3.47;3.17;;;;;;;18.84;100.00;100206.03;6217077;28;20245;-68
2023/07/24 03:03:13;;;;;;;3.30;3.00;;;;;;;18.79;100.00;100203.09;6215200;28;20252;-68
2023/07/24 03:06:34;;;;;;;3.55;3.25;;;;;;;18.85;100.00;100210.47;6239413;28;20240;-68
2023/07/24 03:09:57;;;;;;;2.90;2.60;;;;;;;18.80;100.00;100220.31;6214633;28;20259;-68
2023/07/24 03:13:18;;;;;;;2.92;2.72;;;;;;;18.80;100.00;100215.69;6225787;28;20237;-68
2023/07/24 03:16:40;;;;;;;4.05;2.50;;;;;;;18.84;100.00;100213.38;6225451;28;20228;-68
2023/07/24 03:20:09;;;;;;;3.47;2.83;;;;;;;18.89;100.00;100205.44;6219907;28;20590;-68
2023/07/24 03:23:30;;;;;;;3.50;2.70;;;;;;;18.85;100.00;100206.91;6246486;28;20379;-67
2023/07/24 03:26:53;;;;;;;3.70;2.25;;;;;;;18.85;100.00;100212.34;6234967;28;20235;-67
2023/07/24 03:30:15;;;;;;;2.30;2.13;;;;;;;18.71;100.00;100205.19;6226396;28;20232;-68
2023/07/24 03:33:37;;;;;;;3.22;2.92;;;;;;;18.76;100.00;100200.78;6247643;28;20514;-67
2023/07/24 03:36:58;;;;;;;3.80;3.20;;;;;;;18.77;100.00;100199.75;6212445;28;20226;-68
2023/07/24 03:40:19;;;;;;;2.83;2.63;;;;;;;18.76;100.00;100197.19;6213950;28;20676;-68
2023/07/24 03:43:42;;;;;;;3.33;2.90;;;;;;;18.72;100.00;100191.31;6217014;28;20937;-67
2023/07/24 03:47:04;;;;;;;3.10;2.80;;;;;;;18.63;100.00;100192.53;6229430;28;20336;-67
2023/07/24 03:50:25;;;;;;;3.25;2.95;;;;;;;18.60;100.00;100203.03;6220607;28;20230;-67
2023/07/24 03:53:47;;;;;;;3.90;2.97;;;;;;;18.64;100.00;100196.97;6222566;28;20232;-67
2023/07/24 03:57:08;;;;;;;2.72;2.53;;;;;;;18.50;100.00;100203.41;6245518;28;20234;-67
2023/07/24 04:00:31;;;;;;;3.72;3.42;;;;;;;18.45;100.00;100203.19;6217386;28;20242;-67
2023/07/24 04:03:52;;;;;;;5.40;3.75;;;;;;;18.44;100.00;100204.22;6229187;28;21779;-68
2023/07/24 04:07:14;;;;;;;2.90;2.55;;;;;;;18.39;100.00;100209.41;6245274;28;20235;-68
2023/07/24 04:10:35;;;;;;;3.33;3.05;;;;;;;18.47;100.00;100200.25;6261127;28;20231;-68
2023/07/24 04:13:56;;;;;;;3.88;3.47;;;;;;;18.53;100.00;100204.88;6242065;28;20240;-68
2023/07/24 04:17:19;;;;;;;4.05;3.75;;;;;;;18.35;100.00;100206.25;6255974;28;20234;-67
2023/07/24 04:20:40;;;;;;;4.82;3.88;;;;;;;18.48;100.00;100197.31;6235401;28;20551;-68
2023/07/24 04:24:01;;;;;;;4.22;3.15;;;;;;;18.39;100.00;100195.78;6227138;28;20259;-68
2023/07/24 04:27:22;;;;;;;3.85;3.50;;;;;;;18.55;100.00;100194.59;6248573;28;20610;-68
2023/07/24 04:30:44;;;;;;;3.25;3.05;;;;;;;18.57;100.00;100200.69;6223920;28;20234;-68
2023/07/24 04:34:06;;;;;;;9.13;4.53;;;;;;;18.71;100.00;100195.06;6244779;28;20228;-67
2023/07/24 04:37:28;;;;;;;3.53;3.33;;;;;;;18.64;100.00;100191.50;6242571;28;20492;-67
2023/07/24 04:40:49;;;;;;;4.60;4.10;;;;;;;18.72;100.00;100193.19;6232948;28;20253;-67
2023/07/24 04:44:10;;;;;;;4.45;3.72;;;;;;;18.73;100.00;100198.44;6236532;28;20247;-68
2023/07/24 04:47:32;;;;;;;4.72;3.25;;;;;;;18.78;100.00;100187.75;6229132;28;20232;-68
2023/07/24 04:50:56;;;;;;;4.30;3.90;;;;;;;18.88;100.00;100198.28;6229502;28;20365;-67
2023/07/24 04:54:18;;;;;;;4.00;3.65;;;;;;;18.81;100.00;100197.44;6237524;28;20229;-67
2023/07/24 04:57:39;;;;;;;3.92;3.47;;;;;;;18.75;100.00;100188.19;6242604;28;20248;-68
2023/07/24 05:01:03;;;;;;;4.13;3.80;;;;;;;18.89;100.00;100192.63;6226252;28;20243;-68
2023/07/24 05:04:24;;;;;;;3.35;2.95;;;;;;;18.99;100.00;100186.75;6227611;28;20236;-68
2023/07/24 05:07:48;;;;;;;4.63;3.53;;;;;;;19.24;100.00;100173.31;6240317;28;20235;-69
2023/07/24 05:11:09;;;;;;;2.83;2.58;;;;;;;19.02;100.00;100181.69;6249749;28;20235;-68
2023/07/24 05:14:30;;;;;;;3.53;3.20;;;;;;;19.19;100.00;100168.50;6234704;28;20243;-68
2023/07/24 05:17:51;;;;;;;4.47;3.08;;;;;;;19.16;100.00;100166.19;6229970;28;20231;-69
2023/07/24 05:21:13;;;;;;;6.32;3.47;;;;;;;19.28;100.00;100158.19;6226150;28;20254;-70
2023/07/24 05:24:35;;;;;;;4.93;3.42;;;;;;;19.44;99.97;100157.81;6225975;28;20232;-68
2023/07/24 05:27:57;;;;;;;3.92;3.50;;;;;;;19.52;99.65;100160.34;6252886;28;20232;-68
2023/07/24 05:31:18;;;;;;;3.88;3.47;;;;;;;19.49;99.04;100169.78;6243408;28;21423;-67
2023/07/24 05:34:40;;;;;;;5.05;4.03;;;;;;;19.48;98.74;100170.00;6243777;28;20232;-67
2023/07/24 05:38:01;;;;;;;4.00;3.05;;;;;;;19.38;98.81;100169.59;6220514;28;20561;-68
2023/07/24 05:41:24;;;;;;;4.75;3.78;;;;;;;19.41;98.84;100167.28;6239758;28;20659;-67
2023/07/24 05:44:45;;;;;;;4.18;3.28;;;;;;;19.60;98.31;100157.38;6212088;28;20608;-69
2023/07/24 05:48:07;;;;;;;3.35;3.15;;;;;;;19.36;98.11;100147.09;6234281;28;20300;-70
2023/07/24 05:51:29;;;;;;;4.30;3.30;;;;;;;19.51;98.13;100154.00;6226331;28;20236;-69
2023/07/24 05:54:50;;;;;;;3.53;3.10;;;;;;;19.16;98.01;100152.50;6239965;28;20224;-69
2023/07/24 05:58:13;;;;;;;3.67;2.70;;;;;;;19.22;98.22;100150.81;6218991;28;20236;-69
2023/07/24 06:01:34;;;;;;;3.10;2.90;;;;;;;19.19;98.17;100137.59;6238754;28;21699;-68
2023/07/24 06:04:55;;;;;;;3.97;3.67;;;;;;;19.21;97.96;100143.69;6221977;28;20228;-68
2023/07/24 06:08:17;;;;;;;3.83;3.53;;;;;;;19.29;97.69;100136.13;6232296;28;20240;-68
2023/07/24 06:11:38;;;;;;;4.28;3.78;;;;;;;19.34;96.84;100138.28;6246387;28;20235;-67
2023/07/24 06:15:00;;;;;;;5.47;3.13;;;;;;;19.27;96.61;100140.13;6215467;28;20235;-68
2023/07/24 06:18:22;;;;;;;3.80;3.55;;;;;;;19.41;95.98;100139.94;6239891;28;20793;-68
2023/07/24 06:21:43;;;;;;;3.50;3.25;;;;;;;19.56;95.85;100135.09;6242023;28;20231;-68
2023/07/24 06:25:05;;;;;;;4.05;3.63;;;;;;;19.54;95.09;100130.88;6206384;28;20647;-68
2023/07/24 06:28:26;;;;;;;3.03;2.83;;;;;;;19.54;95.26;100131.72;6213237;28;20243;-68
2023/07/24 06:31:50;;;;;;;4.05;3.63;;;;;;;19.45;94.95;100133.00;6219124;28;20230;-67
2023/07/24 06:35:11;;;;;;;4.43;4.03;;;;;;;19.61;94.57;100129.81;6175166;28;20557;-68
2023/07/24 06:38:32;;;;;;;4.18;3.78;;;;;;;19.51;94.54;100132.13;6214669;28;20235;-68
2023/07/24 06:41:54;;;;;;;3.97;3.67;;;;;;;19.75;94.49;100128.75;6209310;28;20321;-68
2023/07/24 06:45:15;;;;;;;3.22;2.78;;;;;;;20.07;93.97;100123.41;6189293;28;20771;-68
2023/07/24 06:48:38;;;;;;;3.30;3.03;;;;;;;20.17;93.02;100121.03;6203381;28;20323;-69
2023/07/24 06:51:59;;;;;;;5.05;3.50;;;;;;;19.86;92.62;100130.81;6224123;28;20245;-68
2023/07/24 06:55:21;;;;;;;4.70;3.97;;;;;;;20.07;92.82;100123.41;6211027;28;20628;-68
2023/07/24 06:58:42;;;;;;;3.25;3.00;;;;;;;19.81;92.65;100135.25;6253535;28;20231;-69
2023/07/24 07:02:04;;;;;;;3.47;3.25;;;;;;;19.88;92.53;100127.84;6250549;28;20350;-68
2023/07/24 07:05:27;;;;;;;4.00;3.28;;;;;;;20.00;92.39;100128.91;6240702;28;20557;-67
2023/07/24 07:08:48;;;;;;;3.75;3.42;;;;;;;19.98;92.42;100125.53;6240746;28;20314;-69
2023/07/24 07:12:09;;;;;;;3.90;3.47;;;;;;;19.84;92.95;100123.88;6260616;28;20512;-69
2023/07/24 07:15:31;;;;;;;3.55;3.25;;;;;;;19.76;93.84;100126.84;6228041;28;20553;-69
2023/07/24 07:18:52;;;;;;;15.55;4.07;;;;;;;19.80;94.09;100128.09;6238061;28;20834;-68
2023/07/24 07:22:15;;;;;;;2.97;2.72;;;;;;;19.81;93.78;100129.78;6251512;28;20252;-70
2023/07/24 07:25:37;;;;;;;3.15;2.95;;;;;;;19.65;93.81;100125.59;6243091;28;20234;-68
2023/07/24 07:28:58;;;;;;;3.40;3.10;;;;;;;19.68;94.07;100119.72;6236728;28;21060;-69
2023/07/24 07:32:20;;;;;;;2.90;2.70;;;;;;;19.85;94.01;100118.19;6241868;28;20326;-68
2023/07/24 07:35:41;;;;;;;3.45;3.15;;;;;;;19.55;94.52;100124.34;6229670;28;20239;-67
2023/07/24 07:39:03;;;;;;;5.38;3.45;;;;;;;19.70;94.45;100131.28;6248495;28;20232;-68
2023/07/24 07:42:25;;;;;;;3.80;3.22;;;;;;;19.90;93.93;100125.78;6251003;28;20232;-68
2023/07/24 07:45:47;;;;;;;4.03;3.63;;;;;;;19.99;92.92;100123.63;6233930;28;20223;-69
2023/07/24 07:49:08;;;;;;;5.38;3.58;;;;;;;19.94;92.24;100122.38;6236567;28;20239;-68
2023/07/24 07:52:29;;;;;;;3.65;3.33;;;;;;;19.90;92.21;100129.31;6251546;28;20508;-68
2023/07/24 07:55:59;;;;;;;3.88;3.58;;;;;;;20.05;92.15;100115.38;6234189;28;20226;-68
2023/07/24 07:59:20;;;;;;;3.83;3.53;;;;;;;20.13;91.29;100125.28;6233755;28;21031;-68
2023/07/24 08:02:41;;;;;;;4.40;4.10;;;;;;;20.03;91.04;100112.03;6250115;28;20236;-68
2023/07/24 08:06:02;;;;;;;4.57;4.13;;;;;;;20.18;90.30;100109.03;6234529;28;20616;-67
2023/07/24 08:09:24;;;;;;;8.52;4.28;;;;;;;20.19;89.91;100111.56;6226995;28;20232;-68
2023/07/24 08:12:47;;;;;;;4.28;3.88;;;;;;;20.09;89.20;100113.91;6250428;28;20232;-68
2023/07/24 08:16:18;;;;;;;2.75;2.55;;;;;;;20.29;88.94;100108.38;6241249;28;20234;-69
2023/07/24 08:19:39;;;;;;;4.20;3.80;;;;;;;20.06;89.31;100111.59;6253465;28;20240;-69
2023/07/24 08:23:00;;;;;;;4.93;4.45;;;;;;;20.08;89.01;100106.75;6246144;28;20303;-68
2023/07/24 08:26:21;;;;;;;4.68;4.38;;;;;;;20.36;88.96;100096.31;6227577;28;20284;-69
2023/07/24 08:29:44;;;;;;;4.13;3.72;;;;;;;20.51;88.01;100099.63;6241298;28;20228;-68
2023/07/24 08:33:05;;;;;;;4.97;4.57;;;;;;;20.27;87.67;100094.91;6233806;28;20220;-68
2023/07/24 08:36:26;;;;;;;4.15;3.85;;;;;;;20.37;87.94;100102.66;6243764;28;20230;-69
2023/07/24 08:39:48;;;;;;;6.25;4.55;;;;;;;20.51;87.56;100091.41;6234490;28;20232;-69
2023/07/24 08:43:10;;;;;;;4.68;4.32;;;;;;;20.34;87.67;100087.50;6200892;28;20250;-69
2023/07/24 08:46:37;;;;;;;5.22;4.72;;;;;;;20.55;87.28;100106.34;6251841;28;20231;-69
2023/07/24 08:50:00;;;;;;;4.80;4.35;;;;;;;20.53;87.18;100099.41;6242108;28;20318;-69
2023/07/24 08:53:22;;;;;;;4.78;4.38;;;;;;;20.41;87.19;100110.22;6233194;28;20236;-69
2023/07/24 08:56:47;;;;;;;4.78;4.38;;;;;;;20.90;85.89;100105.91;6251414;28;20265;-68
2023/07/24 09:00:08;;;;;;;4.65;4.25;;;;;;;20.92;85.85;100098.31;6208778;28;20232;-69
2023/07/24 09:03:32;;;;;;;5.32;4.82;;;;;;;20.84;84.41;100085.69;6261863;28;20248;-69
2023/07/24 09:06:54;;;;;;;4.65;4.20;;;;;;;21.29;83.45;100083.69;6267515;28;20238;-70
2023/07/24 09:10:15;;;;;;;5.28;4.80;;;;;;;21.60;81.78;100090.97;6230287;28;20251;-69
2023/07/24 09:13:39;;;;;;;4.88;4.47;;;;;;;20.97;81.62;100103.94;6232115;28;20232;-69
2023/07/24 09:17:05;;;;;;;4.20;3.85;;;;;;;21.27;81.02;100103.13;6246791;28;20316;-68
2023/07/24 09:20:39;;;;;;;5.25;4.60;;;;;;;21.36;80.96;100098.19;6217360;28;20262;-69
2023/07/24 09:24:11;;;;;;;5.25;4.85;;;;;;;21.37;80.95;100086.16;6254824;28;20244;-69
2023/07/24 09:27:32;;;;;;;4.60;4.20;;;;;;;21.30;80.83;100079.88;6255593;28;20232;-69
2023/07/24 09:30:55;;;;;;;5.43;4.97;;;;;;;21.10;80.80;100102.00;6234482;28;20246;-69
2023/07/24 09:34:17;;;;;;;5.65;4.95;;;;;;;21.16;80.86;100111.22;6252180;28;20228;-70
2023/07/24 09:37:40;;;;;;;5.43;5.00;;;;;;;21.45;80.29;100103.16;6211548;28;20242;-69
2023/07/24 09:41:03;;;;;;;4.82;3.80;;;;;;;21.86;79.44;100088.00;6241781;28;20231;-68
2023/07/24 09:44:27;;;;;;;6.18;5.45;;;;;;;21.63;78.75;100085.06;6245185;28;20247;-68
2023/07/24 09:47:49;;;;;;;5.85;5.38;;;;;;;21.58;78.96;100093.13;6243974;28;20319;-69
2023/07/24 09:51:12;;;;;;;5.07;4.70;;;;;;;22.37;76.94;100071.91;6250874;28;20258;-69
2023/07/24 09:54:46;;;;;;;5.40;4.90;;;;;;;22.59;75.30;100064.03;6227731;28;20558;-69
2023/07/24 09:58:08;;;;;;;6.47;5.90;;;;;;;22.97;74.18;100062.59;6224649;28;20267;-69
2023/07/24 10:01:31;;;;;;;5.10;4.60;;;;;;;22.23;73.93;100060.28;6248642;28;20232;-68
2023/07/24 10:04:52;;;;;;;5.97;5.35;;;;;;;21.93;75.74;100040.19;6234051;28;20928;-69
2023/07/24 10:08:15;;;;;;;5.00;4.47;;;;;;;22.14;75.24;100055.34;6234531;28;20228;-70
2023/07/24 10:11:38;;;;;;;4.35;4.05;;;;;;;22.14;75.81;100052.59;6228465;28;21044;-69
2023/07/24 10:14:59;;;;;;;6.32;5.72;;;;;;;21.81;75.56;100069.44;6216543;28;20617;-69
2023/07/24 10:18:29;;;;;;;5.22;4.82;;;;;;;21.51;76.67;100057.50;6243994;28;20229;-68
2023/07/24 10:21:52;;;;;;;4.53;4.13;;;;;;;21.41;76.57;100057.19;6211665;28;20232;-70
2023/07/24 10:25:13;;;;;;;4.72;4.20;;;;;;;21.76;76.58;100057.47;6225778;28;20240;-68
2023/07/24 10:28:38;;;;;;;4.47;4.15;;;;;;;21.56;77.01;100065.91;6248542;28;20236;-68
2023/07/24 10:31:59;;;;;;;5.05;4.25;;;;;;;21.42;77.11;100061.63;6212720;28;20266;-69
2023/07/24 10:35:22;;;;;;;6.72;5.72;;;;;;;21.32;77.79;100061.28;6224728;28;20236;-69
2023/07/24 10:38:44;;;;;;;4.05;3.65;;;;;;;21.68;77.66;100060.50;6250372;28;21312;-69
2023/07/24 10:42:07;;;;;;;5.38;4.88;;;;;;;21.83;76.89;100055.50;6223083;28;20235;-67
2023/07/24 10:45:39;;;;;;;5.38;4.88;;;;;;;22.04;76.40;100047.66;6252018;28;20520;-68
2023/07/24 10:49:02;;;;;;;5.38;4.88;;;;;;;22.17;76.03;100049.38;6246163;28;20239;-68
2023/07/24 10:52:29;;;;;;;5.40;4.93;;;;;;;22.10;75.42;100049.47;6236072;28;21126;-68
2023/07/24 10:55:52;;;;;;;4.97;4.50;;;;;;;22.72;74.28;100041.84;6230993;28;20324;-69
2023/07/24 10:59:14;;;;;;;5.32;4.82;;;;;;;22.83;72.92;100052.03;6232743;28;20495;-69
2023/07/24 11:02:37;;;;;;;4.47;4.10;;;;;;;22.49;73.06;100047.25;6247621;28;20247;-69
2023/07/24 11:05:59;;;;;;;4.68;4.28;;;;;;;22.24;73.64;100055.63;6235607;28;20246;-68
2023/07/24 11:09:20;;;;;;;4.60;4.20;;;;;;;22.59;73.83;100050.31;6246689;28;20236;-71
2023/07/24 11:12:41;;;;;;;6.25;4.03;;;;;;;22.65;73.13;100044.72;6245399;28;20236;-67
2023/07/24 11:16:06;;;;;;;4.68;4.28;;;;;;;23.47;71.42;100034.66;6244035;28;20234;-68
2023/07/24 11:19:29;;;;;;;4.18;3.88;;;;;;;24.06;69.49;100039.00;6239067;28;20228;-69
2023/07/24 11:22:50;;;;;;;3.25;3.00;;;;;;;24.22;67.46;100027.22;6247162;28;20593;-67
2023/07/24 11:26:12;;;;;;;4.07;3.70;;;;;;;22.74;68.84;100029.53;6235809;28;20528;-68
2023/07/24 11:29:33;;;;;;;3.42;3.13;;;;;;;22.71;70.32;100030.03;6227707;28;20240;-68
2023/07/24 11:32:55;;;;;;;4.88;4.10;;;;;;;22.16;71.04;100015.59;6236040;28;20331;-70
2023/07/24 11:36:20;;;;;;;4.72;4.00;;;;;;;22.21;72.00;100028.63;6242523;28;20235;-67
2023/07/24 11:39:41;;;;;;;4.13;3.72;;;;;;;21.77;72.32;100015.22;6215891;28;20352;-69
2023/07/24 11:43:04;;;;;;;4.22;3.75;;;;;;;22.18;72.71;100012.59;6227809;28;20228;-67
2023/07/24 11:46:26;;;;;;;4.75;4.35;;;;;;;23.12;70.79;100003.53;6236111;28;20619;-68
2023/07/24 11:49:57;;;;;;;3.08;2.78;;;;;;;23.99;68.11;99997.78;6239306;28;20236;-69
2023/07/24 11:53:23;;;;;;;3.55;3.25;;;;;;;24.60;65.96;99999.81;6235821;28;20294;-68
2023/07/24 11:56:44;;;;;;;3.88;3.47;;;;;;;24.56;64.84;99998.66;6249894;28;20230;-68
2023/07/24 12:00:08;;;;;;;3.60;3.30;;;;;;;23.80;66.64;99999.06;6207806;28;20677;-67
2023/07/24 12:03:29;;;;;;;3.42;3.22;;;;;;;24.59;65.77;99998.16;6249899;28;20236;-67
2023/07/24 12:06:51;;;;;;;4.32;3.50;;;;;;;24.66;63.51;100001.56;6244438;28;20239;-67
2023/07/24 12:10:14;;;;;;;4.10;3.50;;;;;;;24.72;63.61;99992.31;6228943;28;20586;-67
2023/07/24 12:13:35;;;;;;;3.88;3.55;;;;;;;25.22;62.25;99982.13;6265467;28;20225;-68
2023/07/24 12:17:02;;;;;;;3.33;3.03;;;;;;;26.05;61.84;99975.53;6255648;28;20255;-67
2023/07/24 12:20:24;;;;;;;4.25;3.92;;;;;;;25.06;61.61;99983.00;6221316;28;20239;-67
2023/07/24 12:23:46;;;;;;;3.92;3.63;;;;;;;24.45;62.61;99983.84;6252903;28;20233;-67
2023/07/24 12:27:09;;;;;;;3.25;3.00;;;;;;;25.12;61.12;99973.69;6237328;28;20234;-69
2023/07/24 12:30:30;;;;;;;3.47;3.17;;;;;;;25.45;60.81;99977.53;6251199;28;20295;-67
2023/07/24 12:33:51;;;;;;;3.90;3.60;;;;;;;24.37;62.78;99978.75;6247307;28;20231;-68
2023/07/24 12:37:12;;;;;;;4.45;3.50;;;;;;;25.62;61.33;99973.63;6247986;28;20231;-67
2023/07/24 12:40:33;;;;;;;3.38;3.17;;;;;;;25.69;59.20;99967.91;6221201;28;20227;-67
2023/07/24 12:43:56;;;;;;;3.22;2.92;;;;;;;24.81;60.75;99974.31;6232057;28;20228;-67
2023/07/24 12:47:17;;;;;;;3.55;3.25;;;;;;;25.03;61.32;99966.13;6230000;28;20232;-68
2023/07/24 12:50:38;;;;;;;4.10;3.03;;;;;;;25.43;60.67;99955.69;6204361;28;20325;-69
2023/07/24 12:54:00;;;;;;;3.72;3.42;;;;;;;25.32;60.18;99954.66;6243418;28;21657;-68
2023/07/24 12:57:22;;;;;;;4.00;3.42;;;;;;;25.39;60.07;99948.97;6231169;28;20223;-68
2023/07/24 13:00:44;;;;;;;4.15;3.75;;;;;;;25.79;58.08;99938.47;6220150;28;20239;-67
2023/07/24 13:04:06;;;;;;;4.78;3.58;;;;;;;28.39;53.20;99935.06;6244576;28;20526;-67
2023/07/24 13:07:28;;;;;;;5.80;3.47;;;;;;;28.13;52.21;99924.22;6248111;28;20228;-68
2023/07/24 13:10:50;;;;;;;3.47;3.17;;;;;;;24.23;60.26;99918.69;6237628;28;20227;-66
2023/07/24 13:14:11;;;;;;;3.92;3.42;;;;;;;26.59;56.49;99921.09;6242333;28;20229;-69
2023/07/24 13:17:33;;;;;;;3.08;2.88;;;;;;;27.42;53.81;99904.56;6235185;28;20248;-68
2023/07/24 13:20:55;;;;;;;3.17;2.88;;;;;;;28.10;52.89;99913.69;6239003;28;20235;-68
2023/07/24 13:24:16;;;;;;;3.58;3.28;;;;;;;27.07;55.74;99915.41;6241883;28;20562;-67
2023/07/24 13:27:37;;;;;;;3.40;3.03;;;;;;;27.37;53.89;99921.13;6257025;28;20239;-68
2023/07/24 13:30:59;;;;;;;3.22;2.95;;;;;;;27.25;53.80;99939.84;6239757;28;20260;-68
2023/07/24 13:34:22;;;;;;;3.00;2.75;;;;;;;24.60;60.31;99919.88;6236095;28;20265;-70
2023/07/24 13:37:44;;;;;;;2.55;2.35;;;;;;;25.64;59.06;99905.16;6238182;28;20375;-68
2023/07/24 13:41:06;;;;;;;2.97;2.78;;;;;;;27.28;55.50;99906.13;6210491;28;20238;-68
2023/07/24 13:44:28;;;;;;;3.00;2.78;;;;;;;28.15;51.59;99905.38;6244252;28;20622;-67
2023/07/24 13:47:49;;;;;;;2.67;2.47;;;;;;;28.24;52.19;99887.94;6245598;28;20244;-68
2023/07/24 13:51:11;;;;;;;3.50;2.88;;;;;;;26.17;56.76;99885.06;6242132;28;20550;-68
2023/07/24 13:54:32;;;;;;;4.57;3.45;;;;;;;25.76;57.12;99897.59;6239898;28;21516;-68
2023/07/24 13:57:53;;;;;;;4.07;2.88;;;;;;;25.27;58.44;99893.06;6246720;28;20699;-69
2023/07/24 14:01:15;;;;;;;3.65;3.35;;;;;;;24.60;60.13;99884.88;6254876;28;20346;-67
2023/07/24 14:04:36;;;;;;;4.43;3.42;;;;;;;26.34;57.01;99885.78;6241989;28;20230;-69
2023/07/24 14:07:59;;;;;;;3.00;2.80;;;;;;;25.46;56.65;99885.31;6228074;28;20236;-69
2023/07/24 14:11:20;;;;;;;3.92;2.90;;;;;;;24.93;58.40;99872.19;6229360;28;20223;-69
2023/07/24 14:14:42;;;;;;;3.85;3.42;;;;;;;25.18;58.40;99856.78;6233144;28;20232;-69
2023/07/24 14:18:03;;;;;;;2.88;2.67;;;;;;;25.35;57.32;99845.69;6236817;28;20235;-69
2023/07/24 14:21:24;;;;;;;4.03;3.13;;;;;;;26.16;55.33;99852.97;6271081;28;20285;-69
2023/07/24 14:24:47;;;;;;;22.02;6.05;;;;;;;25.37;56.63;99844.34;6233405;28;20232;-68
2023/07/24 14:28:09;;;;;;;3.75;3.00;;;;;;;24.65;58.12;99837.25;6232291;28;20679;-68
2023/07/24 14:31:30;;;;;;;3.25;2.95;;;;;;;24.80;58.54;99826.50;6241537;28;20238;-68
2023/07/24 14:34:53;;;;;;;3.22;3.03;;;;;;;25.06;58.07;99827.66;6245892;28;20235;-68
2023/07/24 14:38:14;;;;;;;3.08;2.85;;;;;;;24.28;60.38;99823.16;6250053;28;20237;-69
2023/07/24 14:41:37;;;;;;;2.83;2.63;;;;;;;23.98;62.45;99819.88;6252293;28;20242;-68
2023/07/24 14:45:01;;;;;;;3.83;2.85;;;;;;;24.24;62.55;99835.78;6245350;28;20227;-68
2023/07/24 14:48:23;;;;;;;3.08;2.70;;;;;;;24.01;63.94;99824.06;6236957;28;20243;-68
2023/07/24 14:51:44;;;;;;;3.42;3.08;;;;;;;23.63;64.28;99811.84;6256926;28;20314;-69
2023/07/24 14:55:06;;;;;;;3.25;3.05;;;;;;;23.73;64.69;99813.91;6238898;28;20868;-67
2023/07/24 14:58:29;;;;;;;3.38;3.08;;;;;;;23.78;65.03;99819.53;6255945;28;20235;-68
2023/07/24 15:01:52;;;;;;;4.03;3.63;;;;;;;23.90;64.54;99809.28;6248413;28;20231;-68
2023/07/24 15:05:13;;;;;;;3.58;3.28;;;;;;;23.91;64.94;99797.16;6220787;28;20235;-68
2023/07/24 15:08:35;;;;;;;3.97;3.67;;;;;;;23.85;65.07;99792.66;6253813;28;20319;-68
2023/07/24 15:11:57;;;;;;;3.10;2.88;;;;;;;23.54;66.27;99794.03;6255623;28;20227;-69
2023/07/24 15:15:20;;;;;;;3.05;2.80;;;;;;;23.38;67.11;99803.09;6219814;28;20244;-68
2023/07/24 15:18:42;;;;;;;3.90;3.50;;;;;;;23.56;66.34;99797.38;6247678;28;20271;-68
2023/07/24 15:22:03;;;;;;;4.07;3.67;;;;;;;23.28;66.41;99797.31;6254936;28;20235;-68
2023/07/24 15:25:25;;;;;;;6.78;3.95;;;;;;;23.39;66.29;99806.66;6236311;28;21621;-68
2023/07/24 15:28:46;;;;;;;4.40;4.00;;;;;;;23.45;65.81;99798.25;6233739;28;21218;-68
2023/07/24 15:32:09;;;;;;;3.67;3.38;;;;;;;23.55;65.63;99800.38;6257640;28;21155;-68
2023/07/24 15:35:30;;;;;;;4.63;4.22;;;;;;;23.76;65.31;99824.44;6218036;28;20230;-68
2023/07/24 15:38:51;;;;;;;4.00;2.83;;;;;;;23.35;65.91;99879.75;6254183;28;20518;-69